Time;durP1;ratioP1;P1;durP2;ratioP2;P2;SDS_P1;SDS_P2;PMS_P1;PMS_P2;Temp;Humidity;BMP_temperature;BMP_pressure;BME280_temperature;BME280_humidity;BME280_pressure;Samples;Min_cycle;Max_cycle;Signal;HPM_P1;HPM_P2
2022/11/06 00:00:43;;;;;;;1999.90;999.90;;;10.30;99.90;;;;;;5083978;28;20059;-64
2022/11/06 00:03:09;;;;;;;1999.90;999.90;;;10.30;99.90;;;;;;5087469;28;20043;-64
2022/11/06 00:08:28;;;;;;;1999.90;999.90;;;10.20;99.90;;;;;;5085079;28;20497;-64
2022/11/06 00:10:54;;;;;;;1999.90;999.90;;;10.10;99.90;;;;;;5060230;28;20122;-64
2022/11/06 00:13:19;;;;;;;1999.90;999.90;;;10.10;99.90;;;;;;5075768;28;20186;-64
2022/11/06 00:15:45;;;;;;;1999.90;999.90;;;10.00;99.90;;;;;;5087059;28;20083;-64
2022/11/06 00:18:10;;;;;;;1999.90;999.90;;;9.90;99.90;;;;;;5101107;28;20047;-64
2022/11/06 00:20:36;;;;;;;1999.90;999.90;;;9.90;99.90;;;;;;5072694;28;20045;-65
2022/11/06 00:23:02;;;;;;;1999.90;999.90;;;9.80;99.90;;;;;;5086097;28;20111;-64
2022/11/06 00:25:27;;;;;;;1999.90;999.90;;;9.80;99.90;;;;;;5074922;28;20036;-64
2022/11/06 00:27:53;;;;;;;1999.90;999.90;;;9.80;99.90;;;;;;5073539;28;20443;-64
2022/11/06 00:30:19;;;;;;;1999.90;999.90;;;9.80;99.90;;;;;;5084418;28;20080;-64
2022/11/06 00:32:46;;;;;;;1999.90;999.90;;;9.80;99.90;;;;;;5078087;28;20487;-64
2022/11/06 00:35:12;;;;;;;1999.90;999.90;;;9.80;99.90;;;;;;5084532;28;20054;-64
2022/11/06 00:37:37;;;;;;;1999.90;999.90;;;9.70;99.90;;;;;;5084280;28;20040;-64
2022/11/06 00:40:03;;;;;;;1999.90;999.90;;;9.70;99.90;;;;;;5083802;28;20040;-65
2022/11/06 00:42:29;;;;;;;1999.90;999.90;;;9.70;99.90;;;;;;5080490;28;20040;-65
2022/11/06 00:44:55;;;;;;;1999.90;999.90;;;9.60;99.90;;;;;;5084110;28;20357;-64
2022/11/06 00:47:21;;;;;;;1999.90;999.90;;;9.60;99.90;;;;;;5073374;28;20065;-65
2022/11/06 00:49:46;;;;;;;1999.90;999.90;;;9.60;99.90;;;;;;5083367;28;20059;-65
2022/11/06 00:52:12;;;;;;;1999.90;999.90;;;9.60;99.90;;;;;;5080340;28;20076;-64
2022/11/06 00:54:37;;;;;;;1999.90;999.90;;;9.60;99.90;;;;;;5082365;28;20476;-64
2022/11/06 00:57:03;;;;;;;1999.90;999.90;;;9.60;99.90;;;;;;5087516;28;20101;-64
2022/11/06 00:59:29;;;;;;;1999.90;999.90;;;9.50;99.90;;;;;;5085760;28;20512;-64
2022/11/06 01:01:54;;;;;;;1999.90;999.90;;;9.60;99.90;;;;;;5086164;28;20040;-64
2022/11/06 01:04:22;;;;;;;1999.90;999.90;;;9.60;99.90;;;;;;5077472;28;20048;-64
2022/11/06 01:06:49;;;;;;;1999.90;999.90;;;9.50;99.90;;;;;;5082924;28;20036;-64
2022/11/06 01:09:19;;;;;;;1999.90;999.90;;;9.60;99.90;;;;;;5083339;28;20048;-64
2022/11/06 01:11:48;;;;;;;1999.90;999.90;;;9.50;99.90;;;;;;5085177;28;20173;-65
2022/11/06 01:14:15;;;;;;;1999.90;999.90;;;9.50;99.90;;;;;;5067625;28;20127;-65
2022/11/06 01:16:40;;;;;;;1999.90;999.90;;;9.50;99.90;;;;;;5089593;28;20551;-64
2022/11/06 01:19:06;;;;;;;1999.90;999.90;;;9.50;99.90;;;;;;5085525;28;20070;-64
2022/11/06 01:21:36;;;;;;;1999.90;999.90;;;9.50;99.90;;;;;;5071685;28;20400;-64
2022/11/06 01:24:08;;;;;;;1999.90;999.90;;;9.60;99.90;;;;;;5072913;28;20052;-64
2022/11/06 01:26:34;;;;;;;1999.90;999.90;;;9.50;99.90;;;;;;5078698;28;20543;-64
2022/11/06 01:29:00;;;;;;;1999.90;999.90;;;9.50;99.90;;;;;;5075345;28;20040;-64
2022/11/06 01:31:28;;;;;;;1999.90;999.90;;;9.50;99.90;;;;;;5087370;28;20055;-64
2022/11/06 01:33:55;;;;;;;1999.90;999.90;;;9.50;99.90;;;;;;5080237;28;20449;-64
2022/11/06 01:36:21;;;;;;;1999.90;999.90;;;9.50;99.90;;;;;;5084658;28;20043;-64
2022/11/06 01:38:49;;;;;;;1999.90;999.90;;;9.40;99.90;;;;;;5090427;28;20119;-65
2022/11/06 01:41:21;;;;;;;1999.90;999.90;;;9.40;99.90;;;;;;5083772;28;20100;-65
2022/11/06 01:43:56;;;;;;;1999.90;999.90;;;9.40;99.90;;;;;;5072159;28;20073;-64
2022/11/06 01:46:24;;;;;;;1999.90;999.90;;;9.40;99.90;;;;;;5084175;28;20073;-64
2022/11/06 01:49:14;;;;;;;1999.90;999.90;;;9.40;99.90;;;;;;5079655;28;20607;-65
2022/11/06 01:51:48;;;;;;;1999.90;999.90;;;9.40;99.90;;;;;;5088020;28;20044;-64
2022/11/06 01:54:14;;;;;;;1999.90;999.90;;;9.40;99.90;;;;;;5059885;28;20048;-65
2022/11/06 01:56:43;;;;;;;1999.90;999.90;;;9.40;99.90;;;;;;5069516;28;20035;-65
2022/11/06 01:59:13;;;;;;;1999.90;999.90;;;9.40;99.90;;;;;;5084911;28;20792;-64
2022/11/06 02:01:38;;;;;;;1999.90;999.90;;;9.40;99.90;;;;;;5082457;28;20423;-65
2022/11/06 02:04:19;;;;;;;1999.90;999.90;;;9.40;99.90;;;;;;5085198;28;20073;-65
2022/11/06 02:06:46;;;;;;;1999.90;999.90;;;9.40;99.90;;;;;;5083244;28;20040;-64
2022/11/06 02:09:12;;;;;;;1999.90;999.90;;;9.40;99.90;;;;;;5087853;28;20470;-64
2022/11/06 02:11:40;;;;;;;1999.90;999.90;;;9.40;99.90;;;;;;5092162;28;20046;-64
2022/11/06 02:14:52;;;;;;;1999.90;999.90;;;9.40;99.90;;;;;;5087110;28;20051;-65
2022/11/06 02:17:35;;;;;;;1999.90;999.90;;;9.40;99.90;;;;;;5086655;28;20044;-65
2022/11/06 02:20:42;;;;;;;1999.90;999.90;;;9.30;99.90;;;;;;5082161;28;20038;-65
2022/11/06 02:23:39;;;;;;;1999.90;999.90;;;9.30;99.90;;;;;;5071926;28;20044;-65
2022/11/06 02:26:32;;;;;;;1999.90;999.90;;;9.30;99.90;;;;;;5073616;28;20492;-65
2022/11/06 02:29:07;;;;;;;1999.90;999.90;;;9.30;99.90;;;;;;5058352;28;20084;-65
2022/11/06 02:31:34;;;;;;;1999.90;999.90;;;9.30;99.90;;;;;;5072039;28;20048;-65
2022/11/06 02:34:05;;;;;;;1999.90;999.90;;;9.30;99.90;;;;;;5077297;28;20047;-65
2022/11/06 02:36:38;;;;;;;1999.90;999.90;;;9.30;99.90;;;;;;5082172;28;20039;-66
2022/11/06 02:39:07;;;;;;;;;;;9.40;99.90;;;;;;5082281;28;20074;-65
2022/11/06 02:41:38;;;;;;;1999.90;999.90;;;9.40;99.90;;;;;;5088469;28;20003;-65
2022/11/06 02:44:08;;;;;;;1999.90;999.90;;;9.40;99.90;;;;;;5080641;28;20058;-65
2022/11/06 02:46:46;;;;;;;1999.90;999.90;;;9.40;99.90;;;;;;5079090;28;20060;-65
2022/11/06 02:49:24;;;;;;;1999.90;999.90;;;9.40;99.90;;;;;;5077154;28;20049;-65
2022/11/06 02:51:55;;;;;;;1999.90;999.90;;;9.40;99.90;;;;;;5080257;28;20131;-64
2022/11/06 02:54:23;;;;;;;1999.90;999.90;;;9.40;99.90;;;;;;5090278;28;20044;-64
2022/11/06 02:56:52;;;;;;;1999.90;999.90;;;9.40;99.90;;;;;;5085020;28;20129;-65
2022/11/06 02:59:22;;;;;;;1999.90;999.90;;;9.40;99.90;;;;;;5084865;28;20031;-65
2022/11/06 03:02:00;;;;;;;1999.90;999.90;;;9.40;99.90;;;;;;5082169;28;20043;-65
2022/11/06 03:04:34;;;;;;;1999.90;999.90;;;9.40;99.90;;;;;;5087699;28;20039;-65
2022/11/06 03:07:17;;;;;;;1999.90;999.90;;;9.40;99.90;;;;;;5070562;28;20051;-65
2022/11/06 03:09:43;;;;;;;1999.90;999.90;;;9.50;99.90;;;;;;5070526;28;20051;-65
2022/11/06 03:12:31;;;;;;;1999.90;999.90;;;9.40;99.90;;;;;;5071210;28;20396;-65
2022/11/06 03:15:13;;;;;;;1999.90;999.90;;;9.40;99.90;;;;;;5079406;28;20143;-65
2022/11/06 03:18:00;;;;;;;1999.90;999.90;;;9.40;99.90;;;;;;5077631;28;20199;-65
2022/11/06 03:20:26;;;;;;;1999.90;999.90;;;9.50;99.90;;;;;;5081607;28;20505;-65
2022/11/06 03:23:14;;;;;;;1999.90;999.90;;;9.50;99.90;;;;;;5073822;28;20459;-65
2022/11/06 03:25:46;;;;;;;1999.90;999.90;;;9.50;99.90;;;;;;5087847;28;20416;-65
2022/11/06 03:28:23;;;;;;;1999.90;999.90;;;9.50;99.90;;;;;;5083044;28;20040;-65
2022/11/06 03:30:54;;;;;;;1999.90;999.90;;;9.50;99.90;;;;;;5072630;28;20038;-65
2022/11/06 03:33:36;;;;;;;1999.90;999.90;;;9.50;99.90;;;;;;5086705;28;20052;-65
2022/11/06 03:36:16;;;;;;;1999.90;999.90;;;9.50;99.90;;;;;;5078540;28;20436;-65
2022/11/06 03:39:17;;;;;;;1999.90;999.90;;;9.50;99.90;;;;;;5085214;28;20384;-65
2022/11/06 03:41:50;;;;;;;1999.90;999.90;;;9.50;99.90;;;;;;5065378;28;20063;-65
2022/11/06 03:44:20;;;;;;;1999.90;999.90;;;9.50;99.90;;;;;;5082865;28;20040;-65
2022/11/06 03:47:10;;;;;;;1999.90;999.90;;;9.60;99.90;;;;;;5068981;28;20052;-65
2022/11/06 03:49:44;;;;;;;1999.90;999.90;;;9.60;99.90;;;;;;5076661;28;20048;-65
2022/11/06 03:52:15;;;;;;;1999.90;999.90;;;9.60;99.90;;;;;;5055326;28;20052;-64
2022/11/06 03:54:51;;;;;;;1999.90;999.90;;;9.60;99.90;;;;;;5077154;28;20455;-65
2022/11/06 03:57:48;;;;;;;1999.90;999.90;;;9.60;99.90;;;;;;5075333;28;20114;-65
2022/11/06 04:00:16;;;;;;;1999.90;999.90;;;9.60;99.90;;;;;;5083481;28;20457;-65
2022/11/06 04:02:45;;;;;;;1999.90;999.90;;;9.60;99.90;;;;;;5088093;28;20142;-65
2022/11/06 04:05:16;;;;;;;1999.90;999.90;;;9.60;99.90;;;;;;5076008;28;20473;-65
2022/11/06 04:13:56;;;;;;;1999.90;999.90;;;9.60;99.90;;;;;;5076769;28;20121;-64
2022/11/06 04:16:04;;;;;;;1999.90;999.90;;;9.70;99.90;;;;;;5084105;28;20083;-65
2022/11/06 04:18:30;;;;;;;1999.90;999.90;;;9.70;99.90;;;;;;5082413;28;20085;-65
2022/11/06 04:21:41;;;;;;;1999.90;999.90;;;9.70;99.90;;;;;;5090754;28;20055;-65
2022/11/06 04:27:32;;;;;;;1999.90;999.90;;;9.70;99.90;;;;;;5082590;28;20117;-65
2022/11/06 04:30:08;;;;;;;1999.90;999.90;;;9.70;99.90;;;;;;5085275;28;20041;-65
2022/11/06 04:32:55;;;;;;;1999.90;999.90;;;9.80;99.90;;;;;;5077293;28;20048;-65
2022/11/06 04:35:45;;;;;;;1999.90;999.90;;;9.80;99.90;;;;;;5084922;28;20040;-65
2022/11/06 04:38:24;;;;;;;1999.90;999.90;;;9.80;99.90;;;;;;5074030;28;20151;-65
2022/11/06 04:41:21;;;;;;;1999.90;999.90;;;9.80;99.90;;;;;;5075893;28;20373;-65
2022/11/06 04:43:51;;;;;;;1999.90;999.90;;;9.80;99.90;;;;;;5080435;28;20527;-65
2022/11/06 04:46:32;;;;;;;1999.90;999.90;;;9.80;99.90;;;;;;5090034;28;20399;-65
2022/11/06 04:48:59;;;;;;;1999.90;999.90;;;9.80;99.90;;;;;;5100159;28;20058;-65
2022/11/06 04:51:30;;;;;;;1999.90;999.90;;;9.80;99.90;;;;;;5091309;28;20048;-65
2022/11/06 04:53:56;;;;;;;1999.90;999.90;;;9.80;99.90;;;;;;5058884;28;20102;-65
2022/11/06 04:56:27;;;;;;;1999.90;999.90;;;9.80;99.90;;;;;;5076494;28;20055;-65
2022/11/06 04:58:53;;;;;;;1999.90;999.90;;;9.90;99.90;;;;;;5081826;28;20442;-64
2022/11/06 05:01:19;;;;;;;1999.90;999.90;;;9.80;99.90;;;;;;5080825;28;20047;-65
2022/11/06 05:03:44;;;;;;;1999.90;999.90;;;9.80;99.90;;;;;;5085710;28;20488;-65
2022/11/06 05:06:10;;;;;;;1999.90;999.90;;;9.80;99.90;;;;;;5078556;28;20100;-65
2022/11/06 05:08:35;;;;;;;1999.90;999.90;;;9.80;99.90;;;;;;5079681;28;20871;-65
2022/11/06 05:11:01;;;;;;;1999.90;999.90;;;9.80;99.90;;;;;;5093580;28;20094;-65
2022/11/06 05:13:26;;;;;;;1999.90;999.90;;;9.80;99.90;;;;;;5091142;28;20040;-65
2022/11/06 05:15:56;;;;;;;1999.90;999.90;;;9.90;99.90;;;;;;5081700;28;20055;-65
2022/11/06 05:18:22;;;;;;;1999.90;999.90;;;9.80;99.90;;;;;;5082292;28;20071;-65
2022/11/06 05:22:56;;;;;;;1999.90;999.90;;;9.80;99.90;;;;;;5089143;28;20086;-65
2022/11/06 05:23:34;;;;;;;1999.90;999.90;;;9.80;99.90;;;;;;5083072;28;20083;-65
2022/11/06 05:26:00;;;;;;;1999.90;999.90;;;9.80;99.90;;;;;;5105358;28;20087;-65
2022/11/06 05:28:25;;;;;;;1999.90;999.90;;;9.80;99.90;;;;;;5090558;28;20114;-64
2022/11/06 05:30:51;;;;;;;1999.90;999.90;;;9.80;99.90;;;;;;5083483;28;20094;-65
2022/11/06 05:33:16;;;;;;;1999.90;999.90;;;9.80;99.90;;;;;;5087959;28;20032;-65
2022/11/06 05:35:42;;;;;;;1999.90;999.90;;;9.80;99.90;;;;;;5091040;28;20036;-65
2022/11/06 05:38:07;;;;;;;1999.90;999.90;;;9.80;99.90;;;;;;5068028;28;20032;-65
2022/11/06 05:40:33;;;;;;;1999.90;999.90;;;9.80;99.90;;;;;;5082806;28;20036;-65
2022/11/06 05:42:58;;;;;;;1999.90;999.90;;;9.80;99.90;;;;;;5078447;28;20075;-64
2022/11/06 05:45:24;;;;;;;1999.90;999.90;;;9.80;99.90;;;;;;5095832;28;20464;-65
2022/11/06 05:47:49;;;;;;;1999.90;999.90;;;9.70;99.90;;;;;;5082839;28;20117;-65
2022/11/06 05:50:15;;;;;;;1999.90;999.90;;;9.80;99.90;;;;;;5079568;28;20093;-65
2022/11/06 05:52:41;;;;;;;1999.90;999.90;;;9.80;99.90;;;;;;5080211;28;20480;-65
2022/11/06 05:55:07;;;;;;;1999.90;999.90;;;9.80;99.90;;;;;;5077578;28;20536;-65
2022/11/06 05:57:32;;;;;;;1999.90;999.90;;;9.80;99.90;;;;;;5085692;28;20028;-65
2022/11/06 05:59:58;;;;;;;1999.90;999.90;;;9.80;99.90;;;;;;5087541;28;20524;-65
2022/11/06 06:02:24;;;;;;;1999.90;999.90;;;9.80;99.90;;;;;;5085664;28;20028;-65
2022/11/06 06:04:49;;;;;;;1999.90;999.90;;;9.80;99.90;;;;;;5059219;28;20087;-64
2022/11/06 06:07:15;;;;;;;1999.90;999.90;;;9.80;99.90;;;;;;5073884;28;20066;-65
2022/11/06 06:09:40;;;;;;;1999.90;999.90;;;9.80;99.90;;;;;;5087821;28;20502;-65
2022/11/06 06:12:09;;;;;;;1999.90;999.90;;;9.80;99.90;;;;;;5102766;28;20434;-65
2022/11/06 06:14:35;;;;;;;1999.90;999.90;;;9.70;99.90;;;;;;5074512;28;20047;-65
2022/11/06 06:17:00;;;;;;;1999.90;999.90;;;9.70;99.90;;;;;;5085988;28;20048;-65
2022/11/06 06:19:26;;;;;;;1999.90;999.90;;;9.70;99.90;;;;;;5080684;28;20040;-65
2022/11/06 06:21:51;;;;;;;1999.90;999.90;;;9.70;99.90;;;;;;5084784;28;20048;-65
2022/11/06 06:24:17;;;;;;;1999.90;999.90;;;9.70;99.90;;;;;;5078821;28;20439;-65
2022/11/06 06:26:42;;;;;;;1999.90;999.90;;;9.60;99.90;;;;;;5100479;28;20044;-65
2022/11/06 06:29:08;;;;;;;1999.90;999.90;;;9.60;99.90;;;;;;5085073;28;21201;-65
2022/11/06 06:31:33;;;;;;;1999.90;999.90;;;9.60;99.90;;;;;;5083070;28;20032;-64
2022/11/06 06:33:59;;;;;;;1999.90;999.90;;;9.60;99.90;;;;;;5088622;28;20040;-65
2022/11/06 06:36:24;;;;;;;1999.90;999.90;;;9.60;99.90;;;;;;5101054;28;20518;-65
2022/11/06 06:38:50;;;;;;;1999.90;999.90;;;9.60;99.90;;;;;;5089983;28;20039;-65
2022/11/06 06:41:16;;;;;;;1999.90;999.90;;;9.60;99.90;;;;;;5100222;28;20042;-64
2022/11/06 06:43:41;;;;;;;1999.90;999.90;;;9.60;99.90;;;;;;5086107;28;20066;-64
2022/11/06 06:46:07;;;;;;;1999.90;999.90;;;9.60;99.90;;;;;;5083191;28;20071;-65
2022/11/06 06:48:33;;;;;;;1999.90;999.90;;;9.60;99.90;;;;;;5084636;28;20051;-65
2022/11/06 06:51:00;;;;;;;1999.90;999.90;;;9.60;99.90;;;;;;5087703;28;20396;-65
2022/11/06 06:53:26;;;;;;;1999.90;999.90;;;9.60;99.90;;;;;;5083993;28;20499;-65
2022/11/06 06:55:52;;;;;;;1999.90;999.90;;;9.60;99.90;;;;;;5082569;28;20456;-65
2022/11/06 06:58:18;;;;;;;1999.90;999.90;;;9.60;99.90;;;;;;5079598;28;20064;-65
2022/11/06 07:00:44;;;;;;;1999.90;999.90;;;9.60;99.90;;;;;;5079933;28;20503;-64
2022/11/06 07:03:10;;;;;;;1999.90;999.90;;;9.60;99.90;;;;;;5052818;28;20136;-64
2022/11/06 07:05:36;;;;;;;1999.90;999.90;;;9.60;99.90;;;;;;5088494;28;20044;-65
2022/11/06 07:08:01;;;;;;;1999.90;999.90;;;9.70;99.90;;;;;;5081857;28;20072;-65
2022/11/06 07:10:27;;;;;;;1999.90;999.90;;;9.70;99.90;;;;;;5083437;28;20075;-64
2022/11/06 07:12:52;;;;;;;1999.90;999.90;;;9.70;99.90;;;;;;5085415;28;20076;-65
2022/11/06 07:15:18;;;;;;;1999.90;999.90;;;9.70;99.90;;;;;;5081075;28;20155;-65
2022/11/06 07:17:44;;;;;;;1999.90;999.90;;;9.70;99.90;;;;;;5090980;28;20445;-65
2022/11/06 07:20:10;;;;;;;1999.90;999.90;;;9.70;99.90;;;;;;5082307;28;20052;-65
2022/11/06 07:22:35;;;;;;;1999.90;999.90;;;9.80;99.90;;;;;;5082713;28;20055;-65
2022/11/06 07:25:01;;;;;;;1999.90;999.90;;;9.70;99.90;;;;;;5077721;28;20043;-65
2022/11/06 07:27:28;;;;;;;1999.90;999.90;;;9.80;99.90;;;;;;5091479;28;20052;-65
2022/11/06 07:29:53;;;;;;;1999.90;999.90;;;9.80;99.90;;;;;;5083684;28;20062;-65
2022/11/06 07:32:19;;;;;;;1999.90;999.90;;;9.80;99.90;;;;;;5085636;28;20048;-65
2022/11/06 07:34:45;;;;;;;1999.90;999.90;;;9.80;99.90;;;;;;5083277;28;20043;-65
2022/11/06 07:37:10;;;;;;;1999.90;999.90;;;9.80;99.90;;;;;;5080306;28;20508;-65
2022/11/06 07:39:36;;;;;;;1999.90;999.90;;;9.70;99.90;;;;;;5083460;28;20526;-65
2022/11/06 07:42:02;;;;;;;1999.90;999.90;;;9.70;99.90;;;;;;5073637;28;20064;-65
2022/11/06 07:44:27;;;;;;;1999.90;999.90;;;9.70;99.90;;;;;;5077851;28;20078;-65
2022/11/06 07:46:53;;;;;;;1999.90;999.90;;;9.70;99.90;;;;;;5071955;28;20114;-65
2022/11/06 07:49:18;;;;;;;1999.90;999.90;;;9.80;99.90;;;;;;5075752;28;20055;-65
2022/11/06 07:51:44;;;;;;;1999.90;999.90;;;9.70;99.90;;;;;;5086701;28;20575;-65
2022/11/06 07:54:10;;;;;;;1999.90;999.90;;;9.70;99.90;;;;;;5087041;28;20043;-65
2022/11/06 07:56:36;;;;;;;1999.90;999.90;;;9.70;99.90;;;;;;5051622;28;20041;-65
2022/11/06 07:59:02;;;;;;;1999.90;999.90;;;9.70;99.90;;;;;;5077655;28;20040;-65
2022/11/06 08:01:27;;;;;;;1999.90;999.90;;;9.70;99.90;;;;;;5084374;28;20060;-65
2022/11/06 08:03:53;;;;;;;1999.90;999.90;;;9.70;99.90;;;;;;5076280;28;20048;-65
2022/11/06 08:06:18;;;;;;;1999.90;999.90;;;9.70;99.90;;;;;;5074485;28;20131;-65
2022/11/06 08:08:44;;;;;;;1999.90;999.90;;;9.70;99.90;;;;;;5075505;28;20076;-65
2022/11/06 08:11:10;;;;;;;1999.90;999.90;;;9.70;99.90;;;;;;5101857;28;20078;-64
2022/11/06 08:13:37;;;;;;;1999.90;999.90;;;9.80;99.90;;;;;;5078895;28;20077;-65
2022/11/06 08:16:08;;;;;;;1999.90;999.90;;;9.80;99.90;;;;;;5080790;28;20038;-65
2022/11/06 08:18:33;;;;;;;1999.90;999.90;;;9.80;99.90;;;;;;5086982;28;20044;-65
2022/11/06 08:20:59;;;;;;;1999.90;999.90;;;9.90;99.90;;;;;;5078525;28;20044;-65
2022/11/06 08:23:25;;;;;;;1999.90;999.90;;;9.90;99.90;;;;;;5078105;28;20032;-65
2022/11/06 08:25:56;;;;;;;1999.90;999.90;;;10.00;99.90;;;;;;5078687;28;20047;-64
2022/11/06 08:28:23;;;;;;;1999.90;999.90;;;10.00;99.90;;;;;;5074477;28;20538;-65
2022/11/06 08:30:49;;;;;;;1999.90;999.90;;;10.00;99.90;;;;;;5078458;28;20090;-65
2022/11/06 08:33:14;;;;;;;1999.90;999.90;;;10.00;99.90;;;;;;5077316;28;20043;-65
2022/11/06 08:35:40;;;;;;;1999.90;999.90;;;10.00;99.90;;;;;;5085861;28;20032;-65
2022/11/06 08:38:06;;;;;;;1999.90;999.90;;;10.10;99.90;;;;;;5085014;28;20067;-65
2022/11/06 08:40:32;;;;;;;1999.90;999.90;;;10.10;99.90;;;;;;5091814;28;20391;-65
2022/11/06 08:42:59;;;;;;;1999.90;999.90;;;10.10;99.90;;;;;;5071833;28;20420;-65
2022/11/06 08:45:25;;;;;;;1999.90;999.90;;;10.10;99.90;;;;;;5070817;28;20064;-65
2022/11/06 08:47:50;;;;;;;1999.90;999.90;;;10.20;99.90;;;;;;5084616;28;20488;-65
2022/11/06 08:50:16;;;;;;;1999.90;999.90;;;10.20;99.90;;;;;;5085358;28;20036;-65
2022/11/06 08:52:41;;;;;;;1999.90;999.90;;;10.20;99.90;;;;;;5077359;28;20040;-65
2022/11/06 08:55:07;;;;;;;1999.90;999.90;;;10.20;99.90;;;;;;5086915;28;20048;-65
2022/11/06 08:57:33;;;;;;;1999.90;999.90;;;10.30;99.90;;;;;;5078218;28;20032;-65
2022/11/06 08:59:58;;;;;;;1999.90;999.90;;;10.30;99.90;;;;;;5099168;28;20394;-65
2022/11/06 09:02:24;;;;;;;1999.90;999.90;;;10.40;99.90;;;;;;5070264;28;20048;-65
2022/11/06 09:04:49;;;;;;;1999.90;999.90;;;10.40;99.90;;;;;;5093729;28;20045;-65
2022/11/06 09:07:15;;;;;;;1999.90;999.90;;;10.50;99.90;;;;;;5086637;28;20053;-65
2022/11/06 09:09:41;;;;;;;1999.90;999.90;;;10.50;99.90;;;;;;5079684;28;20052;-65
2022/11/06 09:12:06;;;;;;;1999.90;999.90;;;10.60;99.90;;;;;;5095035;28;20044;-65
2022/11/06 09:14:33;;;;;;;1999.90;999.90;;;10.60;99.90;;;;;;5082516;28;20094;-65
2022/11/06 09:16:58;;;;;;;1999.90;999.90;;;10.70;99.90;;;;;;5075982;28;20127;-65
2022/11/06 09:19:24;;;;;;;1999.90;999.90;;;10.80;99.90;;;;;;5099855;28;20473;-65
2022/11/06 09:21:49;;;;;;;1999.90;999.90;;;10.80;99.90;;;;;;5076447;28;20040;-65
2022/11/06 09:24:15;;;;;;;1999.90;999.90;;;10.80;99.90;;;;;;5081850;28;20099;-65
2022/11/06 09:26:40;;;;;;;1999.90;999.90;;;10.90;99.90;;;;;;5097050;28;20089;-65
2022/11/06 09:29:06;;;;;;;1999.90;999.90;;;10.90;99.90;;;;;;5087585;28;20048;-65
2022/11/06 09:31:32;;;;;;;1999.90;999.90;;;10.90;99.90;;;;;;5086055;28;20076;-65
2022/11/06 09:33:57;;;;;;;1999.90;999.90;;;10.90;99.90;;;;;;5095499;28;20048;-65
2022/11/06 09:36:23;;;;;;;1999.90;999.90;;;10.90;99.90;;;;;;5080877;28;20064;-65
2022/11/06 09:38:48;;;;;;;1999.90;999.90;;;10.90;99.90;;;;;;5090234;28;20035;-65
2022/11/06 09:41:48;;;;;;;1999.90;999.90;;;11.00;99.90;;;;;;5088469;28;20047;-66
2022/11/06 09:44:35;;;;;;;1999.90;999.90;;;11.00;99.90;;;;;;5085806;28;20051;-65
2022/11/06 09:47:05;;;;;;;1999.90;999.90;;;11.10;99.90;;;;;;5082860;28;20059;-65
2022/11/06 09:49:40;;;;;;;1999.90;999.90;;;11.10;99.90;;;;;;5084637;28;20084;-65
2022/11/06 09:52:09;;;;;;;1999.90;999.90;;;11.10;99.90;;;;;;5062926;28;20128;-65
2022/11/06 09:54:51;;;;;;;1999.90;999.90;;;11.10;99.90;;;;;;5075447;28;20044;-65
2022/11/06 09:57:22;;;;;;;1999.90;999.90;;;11.20;99.90;;;;;;5081375;28;20082;-65
2022/11/06 09:59:48;;;;;;;1999.90;999.90;;;11.20;99.90;;;;;;5090232;28;20036;-65
2022/11/06 10:02:30;;;;;;;1999.90;999.90;;;11.20;99.90;;;;;;5079989;28;20042;-65
2022/11/06 10:05:24;;;;;;;1999.90;999.90;;;11.20;99.90;;;;;;5076876;28;20075;-65
2022/11/06 10:07:53;;;;;;;1999.90;999.90;;;11.20;99.90;;;;;;5086994;28;20427;-65
2022/11/06 10:10:27;;;;;;;1999.90;999.90;;;11.20;99.90;;;;;;5087346;28;20054;-65
2022/11/06 10:13:17;;;;;;;1999.90;999.90;;;11.20;99.90;;;;;;5094270;28;20051;-65
2022/11/06 10:15:58;;;;;;;1999.90;999.90;;;11.30;99.90;;;;;;5089281;28;20505;-65
2022/11/06 10:18:54;;;;;;;1999.90;999.90;;;11.30;99.90;;;;;;5077027;28;20044;-65
2022/11/06 10:21:24;;;;;;;1999.90;999.90;;;11.30;99.90;;;;;;5089540;28;20047;-65
2022/11/06 10:23:58;;;;;;;1999.90;999.90;;;11.40;99.90;;;;;;5088311;28;20087;-65
2022/11/06 10:26:34;;;;;;;1999.90;999.90;;;11.40;99.90;;;;;;5083133;28;20105;-65
2022/11/06 10:29:10;;;;;;;1999.90;999.90;;;11.50;99.90;;;;;;5069790;28;20086;-65
2022/11/06 10:31:50;;;;;;;1999.90;999.90;;;11.50;99.90;;;;;;5083734;28;20492;-65
2022/11/06 10:34:29;;;;;;;1999.90;999.90;;;11.60;99.90;;;;;;5085131;28;20063;-65
2022/11/06 10:37:04;;;;;;;1999.90;999.90;;;11.60;99.90;;;;;;5079557;28;20504;-65
2022/11/06 10:39:32;;;;;;;1999.90;999.90;;;11.70;99.90;;;;;;5085099;28;20044;-65
2022/11/06 10:42:01;;;;;;;1999.90;999.90;;;11.70;99.90;;;;;;5081924;28;20054;-65
2022/11/06 10:44:41;;;;;;;1999.90;999.90;;;11.80;99.90;;;;;;5072964;28;20048;-65
2022/11/06 10:47:17;;;;;;;1999.90;999.90;;;11.80;99.90;;;;;;5083877;28;20052;-65
2022/11/06 10:49:59;;;;;;;1999.90;999.90;;;11.90;99.90;;;;;;5084188;28;20495;-65
2022/11/06 10:52:51;;;;;;;1999.90;999.90;;;11.90;99.90;;;;;;5073573;28;20048;-65
2022/11/06 10:55:38;;;;;;;1999.90;999.90;;;11.90;99.90;;;;;;5069210;28;20048;-65
2022/11/06 10:58:11;;;;;;;1999.90;999.90;;;11.90;99.90;;;;;;5092142;28;20040;-65
2022/11/06 11:00:38;;;;;;;1999.90;999.90;;;11.90;99.90;;;;;;5056206;28;20045;-65
2022/11/06 11:03:18;;;;;;;1999.90;999.90;;;12.00;99.90;;;;;;5088131;28;20051;-65
2022/11/06 11:05:44;;;;;;;1999.90;999.90;;;12.00;99.90;;;;;;5084271;28;20132;-65
2022/11/06 11:08:27;;;;;;;1999.90;999.90;;;11.90;99.90;;;;;;5080537;28;20076;-65
2022/11/06 11:11:04;;;;;;;1999.90;999.90;;;11.90;99.90;;;;;;5083452;28;20071;-65
2022/11/06 11:13:30;;;;;;;1999.90;999.90;;;11.90;99.90;;;;;;5085251;28;20404;-65
2022/11/06 11:15:56;;;;;;;1999.90;999.90;;;11.80;99.90;;;;;;5072361;28;20044;-65
2022/11/06 11:18:29;;;;;;;1999.90;999.90;;;11.80;99.90;;;;;;5073499;28;20044;-65
2022/11/06 11:21:12;;;;;;;1999.90;999.90;;;11.80;99.90;;;;;;5081652;28;20467;-65
2022/11/06 11:23:38;;;;;;;1999.90;999.90;;;11.80;99.90;;;;;;5082467;28;20071;-65
2022/11/06 11:26:26;;;;;;;1999.90;999.90;;;11.80;99.90;;;;;;5082252;28;20086;-65
2022/11/06 11:29:01;;;;;;;1999.90;999.90;;;11.70;99.90;;;;;;5077070;28;20496;-65
2022/11/06 11:31:32;;;;;;;1999.90;999.90;;;11.60;99.90;;;;;;5082910;28;20037;-65
2022/11/06 11:34:01;;;;;;;1999.90;999.90;;;11.50;99.90;;;;;;5085837;28;20050;-65
2022/11/06 11:36:54;;;;;;;1999.90;999.90;;;11.50;99.90;;;;;;5080938;28;20037;-65
2022/11/06 11:39:23;;;;;;;1999.90;999.90;;;11.50;99.90;;;;;;5081541;28;20070;-64
2022/11/06 11:41:48;;;;;;;1999.90;999.90;;;11.50;99.90;;;;;;5068108;28;20558;-65
2022/11/06 11:44:17;;;;;;;1999.90;999.90;;;11.50;99.90;;;;;;5080027;28;20138;-65
2022/11/06 11:46:53;;;;;;;1999.90;999.90;;;11.50;99.90;;;;;;5073068;28;20091;-65
2022/11/06 11:49:27;;;;;;;1999.90;999.90;;;11.50;99.90;;;;;;5086725;28;20048;-65
2022/11/06 11:51:54;;;;;;;1999.90;999.90;;;11.50;99.90;;;;;;5083953;28;20032;-65
2022/11/06 11:54:25;;;;;;;1999.90;999.90;;;11.60;99.90;;;;;;5081402;28;20052;-65
2022/11/06 11:56:54;;;;;;;1999.90;999.90;;;11.60;99.90;;;;;;5082188;28;20217;-64
2022/11/06 11:59:31;;;;;;;1999.90;999.90;;;11.70;99.90;;;;;;5076891;28;20036;-65
2022/11/06 12:02:02;;;;;;;1999.90;999.90;;;11.70;99.90;;;;;;5075410;28;20044;-65
2022/11/06 12:04:38;;;;;;;1999.90;999.90;;;11.70;99.90;;;;;;5081795;28;20044;-65
2022/11/06 12:07:06;;;;;;;1999.90;999.90;;;11.80;99.90;;;;;;5082739;28;20133;-65
2022/11/06 12:09:42;;;;;;;1999.90;999.90;;;11.80;99.90;;;;;;5080578;28;20036;-65
2022/11/06 12:12:22;;;;;;;1999.90;999.90;;;11.90;99.90;;;;;;5083941;28;20544;-65
2022/11/06 12:15:05;;;;;;;1999.90;999.90;;;11.90;99.90;;;;;;5059016;28;20064;-65
2022/11/06 12:17:34;;;;;;;1999.90;999.90;;;12.00;99.90;;;;;;5074564;28;20048;-65
2022/11/06 12:20:01;;;;;;;1999.90;999.90;;;12.00;99.90;;;;;;5083350;28;20115;-65
2022/11/06 12:22:36;;;;;;;1999.90;999.90;;;12.10;99.90;;;;;;5080777;28;20040;-65
2022/11/06 12:25:11;;;;;;;1999.90;999.90;;;12.10;99.90;;;;;;5092915;28;20420;-65
2022/11/06 12:27:41;;;;;;;1999.90;999.90;;;12.20;99.90;;;;;;5067234;28;20043;-65
2022/11/06 12:30:13;;;;;;;1999.90;999.90;;;12.20;99.90;;;;;;5084293;28;20467;-65
2022/11/06 12:32:56;;;;;;;1999.90;999.90;;;12.20;99.90;;;;;;5078807;28;20052;-66
2022/11/06 12:35:43;;;;;;;1999.90;999.90;;;12.30;99.90;;;;;;5076115;28;20123;-65